createdAt,value
2017-03-13T00:00:49.947Z,0
2017-03-13T00:02:00.697Z,0
2017-03-13T00:03:11.011Z,0
2017-03-13T00:04:21.347Z,0
2017-03-13T00:05:32.075Z,0
2017-03-13T00:06:42.405Z,0
2017-03-13T00:07:53.134Z,0
2017-03-13T00:09:03.835Z,0
2017-03-13T00:10:14.136Z,0
2017-03-13T00:11:24.847Z,0
2017-03-13T00:12:34.760Z,0
2017-03-13T00:13:45.476Z,0
2017-03-13T00:14:56.206Z,0
2017-03-13T00:16:06.531Z,0
2017-03-13T00:17:17.291Z,0
2017-03-13T00:18:27.616Z,0
2017-03-13T00:19:38.334Z,0
2017-03-13T00:20:49.066Z,0
2017-03-13T00:21:59.764Z,0
2017-03-13T00:23:10.075Z,0
2017-03-13T00:24:20.806Z,0
2017-03-13T00:25:31.539Z,0
2017-03-13T00:26:41.863Z,0
2017-03-13T00:27:52.213Z,0
2017-03-13T00:29:02.926Z,0
2017-03-13T00:30:13.630Z,0
2017-03-13T00:31:24.352Z,0
2017-03-13T00:32:35.063Z,0
2017-03-13T00:33:45.805Z,0
2017-03-13T00:34:56.534Z,0
2017-03-13T00:36:06.859Z,0
2017-03-13T00:37:17.558Z,0
2017-03-13T00:38:27.902Z,0
2017-03-13T00:39:38.638Z,0
2017-03-13T00:40:49.357Z,0
2017-03-13T00:42:00.063Z,0
2017-03-13T00:43:10.779Z,0
2017-03-13T00:44:21.503Z,0
2017-03-13T00:45:32.211Z,0
2017-03-13T00:46:42.921Z,0
2017-03-13T00:47:53.237Z,0
2017-03-13T00:49:03.945Z,0
2017-03-13T00:50:14.262Z,0
2017-03-13T00:51:24.976Z,0
2017-03-13T00:52:35.706Z,0
2017-03-13T00:53:46.412Z,0
2017-03-13T00:54:57.140Z,0
2017-03-13T00:56:07.853Z,0
2017-03-13T00:57:18.596Z,0
2017-03-13T00:58:29.350Z,0
2017-03-13T00:59:39.673Z,0
2017-03-13T01:00:50.032Z,0
2017-03-13T01:02:00.748Z,0
2017-03-13T01:03:11.466Z,0
2017-03-13T01:04:22.198Z,0
2017-03-13T01:05:32.926Z,0
2017-03-13T01:06:43.664Z,0
2017-03-13T01:07:54.402Z,0
2017-03-13T01:09:05.111Z,0
2017-03-13T01:10:15.452Z,0
2017-03-13T01:11:25.787Z,0
2017-03-13T01:12:36.511Z,0
2017-03-13T01:13:47.241Z,0
2017-03-13T01:14:57.964Z,0
2017-03-13T01:16:08.662Z,0
2017-03-13T01:17:19.388Z,0
2017-03-13T01:18:30.103Z,0
2017-03-13T01:19:40.854Z,0
2017-03-13T01:20:51.562Z,0
2017-03-13T01:22:02.284Z,0
2017-03-13T01:23:13.005Z,0
2017-03-13T01:24:23.739Z,0
2017-03-13T01:25:34.045Z,0
2017-03-13T01:26:44.790Z,0
2017-03-13T01:27:55.515Z,0
2017-03-13T01:29:06.224Z,0
2017-03-13T01:30:16.542Z,0
2017-03-13T01:31:27.249Z,0
2017-03-13T01:32:37.567Z,0
2017-03-13T01:33:48.279Z,0
2017-03-13T01:34:58.195Z,0
2017-03-13T01:36:08.912Z,0
2017-03-13T01:37:19.631Z,0
2017-03-13T01:38:30.367Z,0
2017-03-13T01:39:41.070Z,0
2017-03-13T01:40:51.793Z,0
2017-03-13T01:42:02.497Z,0
2017-03-13T01:43:12.797Z,0
2017-03-13T01:44:23.501Z,0
2017-03-13T01:45:34.218Z,0
2017-03-13T01:46:44.926Z,0
2017-03-13T01:47:55.641Z,0
2017-03-13T01:49:06.381Z,0
2017-03-13T01:50:15.908Z,0
2017-03-13T01:51:26.243Z,0
2017-03-13T01:52:36.971Z,0
2017-03-13T01:53:47.689Z,0
2017-03-13T01:54:58.023Z,0
2017-03-13T01:56:08.778Z,0
2017-03-13T01:57:19.520Z,0
2017-03-13T01:58:29.832Z,0
2017-03-13T01:59:40.544Z,0
2017-03-13T02:00:51.256Z,0
2017-03-13T02:02:02.001Z,0
2017-03-13T02:03:12.723Z,0
2017-03-13T02:04:23.044Z,0
2017-03-13T02:05:33.817Z,0
2017-03-13T02:06:44.539Z,0
2017-03-13T02:07:55.260Z,0
2017-03-13T02:09:05.991Z,0
2017-03-13T02:10:16.721Z,0
2017-03-13T02:11:27.432Z,0
2017-03-13T02:12:38.147Z,0
2017-03-13T02:13:48.857Z,0
2017-03-13T02:14:59.212Z,0
2017-03-13T02:16:09.936Z,0
2017-03-13T02:17:20.658Z,0
2017-03-13T02:18:31.377Z,0
2017-03-13T02:19:41.688Z,0
2017-03-13T02:20:52.398Z,0
2017-03-13T02:22:03.143Z,0
2017-03-13T02:23:13.880Z,0
2017-03-13T02:24:24.584Z,0
2017-03-13T02:25:35.301Z,0
2017-03-13T02:26:46.049Z,0
2017-03-13T02:27:55.960Z,0
2017-03-13T02:29:06.279Z,0
2017-03-13T02:30:16.984Z,0
2017-03-13T02:31:27.690Z,0
2017-03-13T02:32:38.396Z,0
2017-03-13T02:33:49.169Z,0
2017-03-13T02:34:59.484Z,0
2017-03-13T02:36:10.188Z,0
2017-03-13T02:37:20.924Z,0
2017-03-13T02:38:31.633Z,0
2017-03-13T02:39:42.342Z,0
2017-03-13T02:40:53.056Z,0
2017-03-13T02:42:03.798Z,0
2017-03-13T02:43:14.514Z,0
2017-03-13T02:44:25.223Z,0
2017-03-13T02:45:35.941Z,0
2017-03-13T02:46:46.669Z,0
2017-03-13T02:47:57.393Z,0
2017-03-13T02:49:08.121Z,0
2017-03-13T02:50:18.833Z,0
2017-03-13T02:51:29.171Z,0
2017-03-13T02:52:39.493Z,0
2017-03-13T02:53:50.208Z,0
2017-03-13T02:55:00.927Z,0
2017-03-13T02:56:11.645Z,0
2017-03-13T02:57:22.378Z,0
2017-03-13T02:58:33.106Z,0
2017-03-13T02:59:43.462Z,0
2017-03-13T03:00:53.769Z,0
2017-03-13T03:02:04.483Z,0
2017-03-13T03:03:15.213Z,0
2017-03-13T03:04:25.990Z,0
2017-03-13T03:05:36.720Z,0
2017-03-13T03:06:47.436Z,0
2017-03-13T03:07:58.142Z,0
2017-03-13T03:09:08.461Z,0
2017-03-13T03:10:19.231Z,0
2017-03-13T03:11:29.943Z,0
2017-03-13T03:12:40.698Z,0
2017-03-13T03:13:51.402Z,0
2017-03-13T03:15:02.130Z,0
2017-03-13T03:16:14.857Z,0
2017-03-13T03:17:25.583Z,0
2017-03-13T03:18:36.314Z,0
2017-03-13T03:19:47.016Z,0
2017-03-13T03:20:57.730Z,0
2017-03-13T03:22:08.048Z,0
2017-03-13T03:23:18.772Z,0
2017-03-13T03:24:29.482Z,0
2017-03-13T03:25:40.201Z,0
2017-03-13T03:26:50.526Z,0
2017-03-13T03:28:01.228Z,0
2017-03-13T03:29:11.963Z,0
2017-03-13T03:30:22.688Z,0
2017-03-13T03:31:33.415Z,0
2017-03-13T03:32:44.125Z,0
2017-03-13T03:33:54.842Z,0
2017-03-13T03:35:05.543Z,0
2017-03-13T03:36:15.452Z,0
2017-03-13T03:37:26.159Z,0
2017-03-13T03:38:36.863Z,0
2017-03-13T03:39:47.616Z,0
2017-03-13T03:40:58.316Z,0
2017-03-13T03:42:08.620Z,0
2017-03-13T03:43:18.941Z,0
2017-03-13T03:44:29.655Z,0
2017-03-13T03:45:40.392Z,0
2017-03-13T03:46:50.778Z,0
2017-03-13T03:48:01.473Z,0
2017-03-13T03:49:12.223Z,0
2017-03-13T03:50:22.936Z,0
2017-03-13T03:51:33.651Z,0
2017-03-13T03:52:43.966Z,0
2017-03-13T03:53:54.289Z,0
2017-03-13T03:55:05.026Z,0
2017-03-13T03:56:15.747Z,0
2017-03-13T03:57:26.459Z,0
2017-03-13T03:58:37.178Z,0
2017-03-13T03:59:47.903Z,0
2017-03-13T04:00:58.606Z,0
2017-03-13T04:02:08.947Z,0
2017-03-13T04:03:19.295Z,0
2017-03-13T04:04:30.015Z,0
2017-03-13T04:05:40.728Z,0
2017-03-13T04:06:51.433Z,0
2017-03-13T04:08:02.143Z,0
2017-03-13T04:09:12.873Z,0
2017-03-13T04:10:23.578Z,0
2017-03-13T04:11:34.289Z,0
2017-03-13T04:12:45.001Z,0
2017-03-13T04:13:55.732Z,0
2017-03-13T04:15:06.456Z,0
2017-03-13T04:16:16.766Z,0
2017-03-13T04:17:27.498Z,0
2017-03-13T04:18:37.820Z,0
2017-03-13T04:19:48.531Z,0
2017-03-13T04:20:59.240Z,0
2017-03-13T04:22:09.949Z,0
2017-03-13T04:23:20.271Z,0
2017-03-13T04:24:30.976Z,0
2017-03-13T04:25:41.329Z,0
2017-03-13T04:26:52.044Z,0
2017-03-13T04:28:02.776Z,0
2017-03-13T04:29:13.499Z,0
2017-03-13T04:30:24.197Z,0
2017-03-13T04:31:34.905Z,0
2017-03-13T04:32:45.611Z,0
2017-03-13T04:33:56.329Z,0
2017-03-13T04:35:07.029Z,0
2017-03-13T04:36:17.757Z,0
2017-03-13T04:37:28.496Z,0
2017-03-13T04:38:39.207Z,0
2017-03-13T04:39:49.925Z,0
2017-03-13T04:41:00.230Z,0
2017-03-13T04:42:10.935Z,0
2017-03-13T04:43:21.656Z,0
2017-03-13T04:44:32.363Z,0
2017-03-13T04:45:43.099Z,0
2017-03-13T04:46:53.814Z,0
2017-03-13T04:48:04.538Z,0
2017-03-13T04:49:14.902Z,0
2017-03-13T04:50:25.625Z,0
2017-03-13T04:51:36.331Z,0
2017-03-13T04:52:47.081Z,0
2017-03-13T04:53:57.799Z,0
2017-03-13T04:55:08.512Z,0
2017-03-13T04:56:19.253Z,0
2017-03-13T04:57:29.969Z,0
2017-03-13T04:58:40.723Z,4
2017-03-13T04:59:51.453Z,4
2017-03-13T05:01:02.171Z,0
2017-03-13T05:02:12.497Z,0
2017-03-13T05:03:22.436Z,4
2017-03-13T05:04:32.739Z,4
2017-03-13T05:05:43.072Z,4
2017-03-13T05:06:53.405Z,4
2017-03-13T05:08:04.148Z,4
2017-03-13T05:09:14.862Z,8
2017-03-13T05:10:25.585Z,8
2017-03-13T05:11:36.297Z,8
2017-03-13T05:12:47.025Z,8
2017-03-13T05:13:56.950Z,12
2017-03-13T05:15:07.684Z,16
2017-03-13T05:16:18.407Z,16
2017-03-13T05:17:29.136Z,20
2017-03-13T05:18:39.857Z,24
2017-03-13T05:19:50.562Z,24
2017-03-13T05:21:01.266Z,28
2017-03-13T05:22:11.982Z,36
2017-03-13T05:23:22.707Z,40
2017-03-13T05:24:33.420Z,44
2017-03-13T05:25:43.747Z,48
2017-03-13T05:26:54.476Z,56
2017-03-13T05:28:05.182Z,64
2017-03-13T05:29:15.496Z,68
2017-03-13T05:30:26.215Z,80
2017-03-13T05:31:36.535Z,88
2017-03-13T05:32:46.840Z,104
2017-03-13T05:33:57.153Z,116
2017-03-13T05:35:07.867Z,132
2017-03-13T05:36:17.792Z,148
2017-03-13T05:37:28.523Z,164
2017-03-13T05:38:39.250Z,180
2017-03-13T05:39:49.153Z,196
2017-03-13T05:40:59.480Z,216
2017-03-13T05:42:10.202Z,244
2017-03-13T05:43:20.914Z,272
2017-03-13T05:44:31.630Z,296
2017-03-13T05:45:41.936Z,316
2017-03-13T05:46:52.664Z,340
2017-03-13T05:48:03.381Z,368
2017-03-13T05:49:14.087Z,404
2017-03-13T05:50:24.816Z,444
2017-03-13T05:51:35.526Z,484
2017-03-13T05:52:46.242Z,524
2017-03-13T05:53:56.950Z,560
2017-03-13T05:55:08.020Z,604
2017-03-13T05:56:18.354Z,644
2017-03-13T05:57:29.069Z,664
2017-03-13T05:58:39.795Z,680
2017-03-13T05:59:50.564Z,716
2017-03-13T06:01:01.288Z,752
2017-03-13T06:02:11.997Z,804
2017-03-13T06:03:22.325Z,864
2017-03-13T06:04:33.070Z,936
2017-03-13T06:05:43.378Z,996
2017-03-13T06:06:54.101Z,1068
2017-03-13T06:08:04.795Z,1148
2017-03-13T06:09:15.491Z,1232
2017-03-13T06:10:26.191Z,1316
2017-03-13T06:11:36.506Z,1400
2017-03-13T06:12:47.514Z,1492
2017-03-13T06:13:58.239Z,1580
2017-03-13T06:15:08.974Z,1672
2017-03-13T06:16:19.680Z,1768
2017-03-13T06:17:30.406Z,1856
2017-03-13T06:18:41.120Z,1924
2017-03-13T06:19:51.477Z,1984
2017-03-13T06:21:02.180Z,2004
2017-03-13T06:22:12.876Z,1980
2017-03-13T06:23:22.796Z,1912
2017-03-13T06:24:33.536Z,1852
2017-03-13T06:25:44.253Z,1812
2017-03-13T06:26:54.565Z,1784
2017-03-13T06:28:05.325Z,1732
2017-03-13T06:29:16.036Z,1672
2017-03-13T06:30:26.742Z,1620
2017-03-13T06:31:37.475Z,1560
2017-03-13T06:32:48.186Z,1500
2017-03-13T06:33:58.910Z,1448
2017-03-13T06:35:09.621Z,1420
2017-03-13T06:36:20.356Z,1412
2017-03-13T06:37:31.070Z,1412
2017-03-13T06:38:41.771Z,1416
2017-03-13T06:39:52.498Z,1412
2017-03-13T06:41:02.819Z,1412
2017-03-13T06:42:13.547Z,1408
2017-03-13T06:43:23.476Z,1416
2017-03-13T06:44:34.191Z,1424
2017-03-13T06:45:44.918Z,1436
2017-03-13T06:46:55.635Z,1452
2017-03-13T06:48:06.349Z,1488
2017-03-13T06:49:17.099Z,1532
2017-03-13T06:50:27.807Z,1580
2017-03-13T06:51:38.524Z,1636
2017-03-13T06:52:49.240Z,1700
2017-03-13T06:53:59.568Z,1792
2017-03-13T06:55:09.896Z,1924
2017-03-13T06:56:20.615Z,2084
2017-03-13T06:57:30.540Z,2264
2017-03-13T06:58:41.278Z,2452
2017-03-13T06:59:51.982Z,2644
2017-03-13T07:01:02.693Z,2828
2017-03-13T07:02:13.023Z,2992
2017-03-13T07:03:23.346Z,3112
2017-03-13T07:04:34.044Z,3160
2017-03-13T07:05:44.907Z,3168
2017-03-13T07:06:55.212Z,3184
2017-03-13T07:08:05.544Z,3224
2017-03-13T07:09:16.270Z,3324
2017-03-13T07:10:26.600Z,3412
2017-03-13T07:11:37.320Z,3468
2017-03-13T07:12:47.657Z,3416
2017-03-13T07:13:58.397Z,3324
2017-03-13T07:15:09.106Z,3240
2017-03-13T07:16:19.447Z,3140
2017-03-13T07:17:29.768Z,3064
2017-03-13T07:18:40.497Z,3004
2017-03-13T07:19:51.209Z,2984
2017-03-13T07:21:01.940Z,2948
2017-03-13T07:22:12.640Z,2968
2017-03-13T07:23:22.950Z,3016
2017-03-13T07:24:32.499Z,3072
2017-03-13T07:25:42.807Z,3088
2017-03-13T07:26:53.531Z,3116
2017-03-13T07:28:04.265Z,3192
2017-03-13T07:29:17.760Z,3300
2017-03-13T07:30:28.088Z,3444
2017-03-13T07:31:38.709Z,3568
2017-03-13T07:32:49.419Z,3700
2017-03-13T07:34:00.141Z,3816
2017-03-13T07:35:10.867Z,3944
2017-03-13T07:36:21.573Z,4032
2017-03-13T07:37:32.301Z,4108
2017-03-13T07:38:43.039Z,4168
2017-03-13T07:39:53.748Z,4200
2017-03-13T07:41:04.485Z,4176
2017-03-13T07:42:15.216Z,4164
2017-03-13T07:43:25.539Z,4132
2017-03-13T07:44:36.239Z,4080
2017-03-13T07:45:46.949Z,4000
2017-03-13T07:46:57.272Z,3908
2017-03-13T07:48:07.991Z,3812
2017-03-13T07:49:17.903Z,3732
2017-03-13T07:50:28.641Z,3684
2017-03-13T07:51:39.369Z,3668
2017-03-13T07:52:50.070Z,3648
2017-03-13T07:54:00.789Z,3664
2017-03-13T07:55:11.115Z,3692
2017-03-13T07:56:21.829Z,3776
2017-03-13T07:57:32.148Z,3876
2017-03-13T07:58:42.860Z,4124
2017-03-13T07:59:53.561Z,4452
2017-03-13T08:01:04.277Z,4788
2017-03-13T08:02:15.003Z,5196
2017-03-13T08:03:25.347Z,5576
2017-03-13T08:04:35.674Z,5840
2017-03-13T08:05:46.445Z,6064
2017-03-13T08:06:57.171Z,6172
2017-03-13T08:08:07.498Z,6260
2017-03-13T08:09:18.206Z,6260
2017-03-13T08:10:28.910Z,6180
2017-03-13T08:11:39.626Z,6064
2017-03-13T08:12:50.344Z,5924
2017-03-13T08:14:00.670Z,5844
2017-03-13T08:15:11.386Z,5796
2017-03-13T08:16:22.126Z,5748
2017-03-13T08:17:32.429Z,5728
2017-03-13T08:18:42.784Z,5676
2017-03-13T08:19:53.502Z,5608
2017-03-13T08:21:04.213Z,5564
2017-03-13T08:22:14.944Z,5568
2017-03-13T08:23:25.666Z,5624
2017-03-13T08:24:35.991Z,5720
2017-03-13T08:25:45.916Z,5824
2017-03-13T08:26:56.238Z,5880
2017-03-13T08:28:06.956Z,5944
2017-03-13T08:29:17.709Z,5996
2017-03-13T08:30:28.420Z,6016
2017-03-13T08:31:39.159Z,6004
2017-03-13T08:32:49.496Z,6036
2017-03-13T08:33:59.847Z,6132
2017-03-13T08:35:10.557Z,6240
2017-03-13T08:36:21.276Z,6332
2017-03-13T08:37:32.009Z,6308
2017-03-13T08:38:42.765Z,6212
2017-03-13T08:39:53.494Z,6156
2017-03-13T08:41:04.233Z,6156
2017-03-13T08:42:14.946Z,6096
2017-03-13T08:43:25.672Z,6056
2017-03-13T08:44:36.405Z,5968
2017-03-13T08:45:47.108Z,5760
2017-03-13T08:46:57.827Z,5548
2017-03-13T08:48:08.545Z,5188
2017-03-13T08:49:18.848Z,4944
2017-03-13T08:50:29.555Z,4876
2017-03-13T08:51:40.302Z,4888
2017-03-13T08:52:51.034Z,4836
2017-03-13T08:54:01.748Z,4828
2017-03-13T08:55:12.471Z,4876
2017-03-13T08:56:23.198Z,5044
2017-03-13T08:57:33.909Z,5208
2017-03-13T08:58:44.617Z,5408
2017-03-13T08:59:55.346Z,5496
2017-03-13T09:01:06.072Z,5560
2017-03-13T09:02:15.999Z,5580
2017-03-13T09:03:26.322Z,5580
2017-03-13T09:04:36.645Z,5540
2017-03-13T09:05:47.392Z,5564
2017-03-13T09:06:58.122Z,5560
2017-03-13T09:08:08.835Z,5664
2017-03-13T09:09:19.557Z,5792
2017-03-13T09:10:30.270Z,5996
2017-03-13T09:11:40.603Z,6216
2017-03-13T09:12:51.321Z,6484
2017-03-13T09:14:02.046Z,6744
2017-03-13T09:15:12.749Z,7020
2017-03-13T09:16:23.090Z,7312
2017-03-13T09:17:33.410Z,7504
2017-03-13T09:18:44.157Z,7596
2017-03-13T09:19:54.866Z,7656
2017-03-13T09:21:05.192Z,7628
2017-03-13T09:22:15.921Z,7608
2017-03-13T09:23:26.229Z,7672
2017-03-13T09:24:36.547Z,7868
2017-03-13T09:25:47.306Z,8064
2017-03-13T09:26:58.011Z,8188
2017-03-13T09:28:08.721Z,8308
2017-03-13T09:29:19.050Z,8352
2017-03-13T09:30:29.777Z,8252
2017-03-13T09:31:40.088Z,8212
2017-03-13T09:32:50.396Z,8084
2017-03-13T09:34:01.123Z,7876
2017-03-13T09:35:11.867Z,7420
2017-03-13T09:36:22.584Z,7052
2017-03-13T09:37:32.884Z,6832
2017-03-13T09:38:43.603Z,6732
2017-03-13T09:39:54.311Z,6820
2017-03-13T09:41:05.029Z,6880
2017-03-13T09:42:15.757Z,7024
2017-03-13T09:43:26.490Z,7136
2017-03-13T09:44:37.223Z,7456
2017-03-13T09:45:47.944Z,7676
2017-03-13T09:46:58.266Z,7804
2017-03-13T09:48:08.985Z,7908
2017-03-13T09:49:19.321Z,8148
2017-03-13T09:50:30.053Z,8488
2017-03-13T09:51:40.757Z,8800
2017-03-13T09:52:51.487Z,8996
2017-03-13T09:54:02.185Z,9232
2017-03-13T09:55:12.919Z,9116
2017-03-13T09:56:23.235Z,8916
2017-03-13T09:57:33.972Z,8808
2017-03-13T09:58:44.677Z,8604
2017-03-13T09:59:55.419Z,8312
2017-03-13T10:01:06.122Z,8168
2017-03-13T10:02:16.844Z,8188
2017-03-13T10:03:27.552Z,8264
2017-03-13T10:04:37.865Z,8348
2017-03-13T10:05:48.571Z,8380
2017-03-13T10:06:58.530Z,8312
2017-03-13T10:08:08.855Z,8236
2017-03-13T10:09:19.595Z,8208
2017-03-13T10:10:30.342Z,8152
2017-03-13T10:11:41.047Z,8024
2017-03-13T10:12:51.757Z,7864
2017-03-13T10:14:02.475Z,7736
2017-03-13T10:15:12.791Z,7804
2017-03-13T10:16:23.510Z,8008
2017-03-13T10:17:33.839Z,8328
2017-03-13T10:18:44.165Z,8592
2017-03-13T10:19:54.871Z,8660
2017-03-13T10:21:05.214Z,8544
2017-03-13T10:22:15.932Z,8272
2017-03-13T10:23:26.668Z,7960
2017-03-13T10:24:36.999Z,7728
2017-03-13T10:25:47.320Z,7656
2017-03-13T10:26:57.643Z,7720
2017-03-13T10:28:07.560Z,7912
2017-03-13T10:29:17.887Z,8100
2017-03-13T10:30:28.208Z,8256
2017-03-13T10:31:38.519Z,8440
2017-03-13T10:32:49.228Z,8704
2017-03-13T10:33:59.994Z,8884
2017-03-13T10:35:10.335Z,8884
2017-03-13T10:36:21.113Z,8944
2017-03-13T10:37:31.024Z,9244
2017-03-13T10:38:41.350Z,9712
2017-03-13T10:39:51.672Z,10052
2017-03-13T10:41:02.388Z,10204
2017-03-13T10:42:12.697Z,10268
2017-03-13T10:43:23.015Z,10464
2017-03-13T10:44:32.930Z,10216
2017-03-13T10:45:43.666Z,9692
2017-03-13T10:46:54.384Z,9096
2017-03-13T10:48:05.121Z,8668
2017-03-13T10:49:15.815Z,8760
2017-03-13T10:50:26.539Z,8760
2017-03-13T10:51:37.271Z,8528
2017-03-13T10:52:48.007Z,8348
2017-03-13T10:53:58.321Z,8056
2017-03-13T10:55:09.039Z,7656
2017-03-13T10:56:19.765Z,7596
2017-03-13T10:57:30.473Z,7640
2017-03-13T10:58:41.206Z,7700
2017-03-13T10:59:51.536Z,7872
2017-03-13T11:01:01.868Z,8092
2017-03-13T11:02:12.204Z,7988
2017-03-13T11:03:22.927Z,7636
2017-03-13T11:04:33.664Z,7184
2017-03-13T11:05:44.413Z,6880
2017-03-13T11:06:55.122Z,6556
2017-03-13T11:08:05.830Z,6064
2017-03-13T11:09:16.566Z,5644
2017-03-13T11:10:27.266Z,5272
2017-03-13T11:11:37.592Z,5000
2017-03-13T11:12:48.291Z,4828
2017-03-13T11:13:58.996Z,4808
2017-03-13T11:15:09.724Z,4888
2017-03-13T11:16:19.646Z,4912
2017-03-13T11:17:30.394Z,5036
2017-03-13T11:18:41.107Z,5040
2017-03-13T11:19:51.840Z,5044
2017-03-13T11:21:02.589Z,4800
2017-03-13T11:22:12.918Z,4540
2017-03-13T11:23:23.644Z,4552
2017-03-13T11:24:33.958Z,4720
2017-03-13T11:25:44.662Z,4752
2017-03-13T11:26:54.981Z,4788
2017-03-13T11:28:04.897Z,4872
2017-03-13T11:29:15.605Z,4960
2017-03-13T11:30:26.331Z,5096
2017-03-13T11:31:36.661Z,5116
2017-03-13T11:32:47.398Z,5212
2017-03-13T11:33:58.105Z,5436
2017-03-13T11:35:08.856Z,5812
2017-03-13T11:36:19.564Z,6128
2017-03-13T11:37:30.340Z,6644
2017-03-13T11:38:41.066Z,7272
2017-03-13T11:39:51.791Z,7448
2017-03-13T11:41:02.505Z,7180
2017-03-13T11:42:12.851Z,6616
2017-03-13T11:43:23.583Z,6488
2017-03-13T11:44:33.941Z,6840
2017-03-13T11:45:44.711Z,7456
2017-03-13T11:46:55.050Z,7808
2017-03-13T11:48:05.373Z,8056
2017-03-13T11:49:15.702Z,8128
2017-03-13T11:50:26.416Z,8100
2017-03-13T11:51:37.159Z,7784
2017-03-13T11:52:47.475Z,7688
2017-03-13T11:53:58.186Z,7756
2017-03-13T11:55:08.099Z,7812
2017-03-13T11:56:18.833Z,7864
2017-03-13T11:57:29.576Z,7876
2017-03-13T11:58:39.892Z,8000
2017-03-13T11:59:50.631Z,8380
2017-03-13T12:01:00.951Z,8420
2017-03-13T12:02:11.289Z,8084
2017-03-13T12:03:21.613Z,7892
2017-03-13T12:04:31.932Z,8040
2017-03-13T12:05:42.644Z,8016
2017-03-13T12:06:53.364Z,7668
2017-03-13T12:08:04.123Z,7336
2017-03-13T12:09:14.863Z,7100
2017-03-13T12:10:25.177Z,6992
2017-03-13T12:11:35.901Z,7192
2017-03-13T12:12:46.660Z,7516
2017-03-13T12:13:57.380Z,7652
2017-03-13T12:15:07.716Z,7740
2017-03-13T12:16:18.070Z,7916
2017-03-13T12:17:28.378Z,8136
2017-03-13T12:18:39.096Z,8064
2017-03-13T12:19:49.801Z,7996
2017-03-13T12:21:00.117Z,7972
2017-03-13T12:22:10.837Z,7976
2017-03-13T12:23:21.153Z,8152
2017-03-13T12:24:31.455Z,8352
2017-03-13T12:25:42.171Z,8608
2017-03-13T12:26:52.898Z,8696
2017-03-13T12:28:03.220Z,8772
2017-03-13T12:29:13.929Z,8860
2017-03-13T12:30:24.245Z,8756
2017-03-13T12:31:34.990Z,8608
2017-03-13T12:32:45.307Z,8576
2017-03-13T12:33:56.018Z,8344
2017-03-13T12:35:06.734Z,8356
2017-03-13T12:36:17.477Z,8408
2017-03-13T12:37:28.195Z,8412
2017-03-13T12:38:38.934Z,8468
2017-03-13T12:39:49.649Z,8484
2017-03-13T12:40:59.971Z,8264
2017-03-13T12:42:10.692Z,8300
2017-03-13T12:43:21.417Z,8264
2017-03-13T12:44:31.770Z,8088
2017-03-13T12:45:42.097Z,7996
2017-03-13T12:46:52.838Z,8080
2017-03-13T12:48:03.548Z,8300
2017-03-13T12:49:14.305Z,8504
2017-03-13T12:50:25.011Z,8632
2017-03-13T12:54:26.945Z,9232
2017-03-13T12:55:36.884Z,8988
2017-03-13T12:56:47.618Z,8584
2017-03-13T12:57:57.547Z,8424
2017-03-13T12:59:08.254Z,8380
2017-03-13T13:00:18.963Z,8196
2017-03-13T13:01:29.646Z,8096
2017-03-13T13:02:39.931Z,8320
2017-03-13T13:03:50.237Z,8676
2017-03-13T13:05:00.919Z,9132
2017-03-13T13:06:11.201Z,8892
2017-03-13T13:07:21.084Z,8728
2017-03-13T13:08:31.767Z,8252
2017-03-13T13:09:42.460Z,7824
2017-03-13T13:10:53.125Z,7888
2017-03-13T13:12:03.400Z,8044
2017-03-13T13:13:14.074Z,8188
2017-03-13T13:14:23.961Z,8388
2017-03-13T13:15:34.624Z,8436
2017-03-13T13:16:44.896Z,8748
2017-03-13T13:17:55.580Z,8936
2017-03-13T13:19:05.861Z,9008
2017-03-13T13:20:16.136Z,8876
2017-03-13T13:21:26.805Z,8976
2017-03-13T13:22:37.477Z,9720
2017-03-13T13:23:46.960Z,10436
2017-03-13T13:24:57.236Z,10980
2017-03-13T13:26:07.516Z,11776
2017-03-13T13:27:18.197Z,12872
2017-03-13T13:28:27.689Z,13388
2017-03-13T13:29:38.365Z,12236
2017-03-13T13:30:49.043Z,11156
2017-03-13T13:31:59.329Z,9488
2017-03-13T13:33:10.006Z,7964
2017-03-13T13:34:20.678Z,7216
2017-03-13T13:35:30.957Z,6980
2017-03-13T13:36:41.679Z,6852
2017-03-13T13:37:52.359Z,6840
2017-03-13T13:39:03.045Z,6928
2017-03-13T13:40:13.740Z,7160
2017-03-13T13:41:24.420Z,7276
2017-03-13T13:42:34.703Z,7132
2017-03-13T13:43:44.977Z,7036
2017-03-13T13:44:55.260Z,6972
2017-03-13T13:46:05.544Z,6984
2017-03-13T13:47:16.218Z,7080
2017-03-13T13:48:26.108Z,7288
2017-03-13T13:49:36.778Z,7624
2017-03-13T13:50:47.058Z,7612
2017-03-13T13:51:57.732Z,7416
2017-03-13T13:53:08.409Z,7644
2017-03-13T13:54:18.686Z,8152
2017-03-13T13:55:29.370Z,8576
2017-03-13T13:56:40.048Z,8924
2017-03-13T13:57:50.737Z,9048
2017-03-13T13:59:01.417Z,8896
2017-03-13T14:00:11.694Z,8440
2017-03-13T14:01:21.975Z,7740
2017-03-13T14:02:32.659Z,6788
2017-03-13T14:03:43.329Z,6240
2017-03-13T14:04:54.000Z,6348
2017-03-13T14:06:04.690Z,6228
2017-03-13T14:07:15.373Z,6280
2017-03-13T14:08:25.259Z,6284
2017-03-13T14:09:35.938Z,6120
2017-03-13T14:10:46.619Z,5908
2017-03-13T14:11:56.899Z,5828
2017-03-13T14:13:07.578Z,5548
2017-03-13T14:14:18.253Z,5164
2017-03-13T14:16:12.948Z,4500
2017-03-13T14:17:23.227Z,4172
2017-03-13T14:18:33.512Z,3860
2017-03-13T14:19:44.188Z,3676
2017-03-13T14:22:49.115Z,2964
2017-03-13T14:23:59.395Z,2664
2017-03-13T14:25:10.063Z,2564
2017-03-13T14:26:20.737Z,2708
2017-03-13T14:31:20.489Z,4476
2017-03-13T14:32:31.174Z,4996
2017-03-13T14:33:41.846Z,5576
2017-03-13T14:34:52.511Z,6000
2017-03-13T14:36:03.180Z,6360
2017-03-13T14:48:37.337Z,5116
2017-03-13T14:49:48.009Z,5276
2017-03-13T14:50:58.683Z,5512
2017-03-13T14:52:09.352Z,5536
2017-03-13T14:53:20.060Z,5428
2017-03-13T14:54:30.390Z,5328
2017-03-13T14:56:12.750Z,5336
2017-03-13T14:57:23.504Z,5344
2017-03-13T14:58:34.200Z,5304
2017-03-13T14:59:44.877Z,5336
2017-03-13T15:10:45.742Z,6092
2017-03-13T15:11:56.089Z,6124
2017-03-13T15:43:43.553Z,27296
2017-03-13T15:44:53.455Z,14720
2017-03-13T15:46:03.820Z,16160
2017-03-13T15:47:14.514Z,18080
2017-03-13T15:48:25.274Z,20384
2017-03-13T15:53:48.944Z,13568
2017-03-13T15:54:59.746Z,15168
2017-03-13T15:56:10.068Z,15936
2017-03-13T15:57:20.356Z,13280
2017-03-13T16:00:18.417Z,9220
2017-03-13T16:01:29.169Z,9968
2017-03-13T16:04:08.889Z,10244
2017-03-13T16:05:19.176Z,10156
2017-03-13T16:06:29.056Z,11696
2017-03-13T16:07:39.341Z,13056
2017-03-13T16:08:50.020Z,13184
2017-03-13T16:10:00.700Z,12448
2017-03-13T16:11:42.666Z,9728
2017-03-13T16:12:53.354Z,8416
2017-03-13T16:14:03.640Z,8300
2017-03-13T16:15:14.316Z,7468
2017-03-13T16:18:32.031Z,6280
2017-03-13T16:19:42.306Z,5524
2017-03-13T16:20:52.975Z,5404
2017-03-13T16:37:23.578Z,2048
2017-03-13T16:38:33.871Z,2240
2017-03-13T16:40:16.433Z,1976
2017-03-13T16:41:53.758Z,1564
2017-03-13T16:43:04.464Z,1260
2017-03-13T16:44:15.136Z,1188
2017-03-13T16:45:25.811Z,1132
2017-03-13T16:46:35.699Z,1116
2017-03-13T16:47:46.377Z,1064
2017-03-13T16:48:57.056Z,1016
2017-03-13T16:50:07.737Z,1000
2017-03-13T16:51:18.417Z,1004
2017-03-13T16:52:29.094Z,976
2017-03-13T16:53:39.777Z,980
2017-03-13T16:54:50.466Z,928
2017-03-13T16:56:01.142Z,896
2017-03-13T16:57:11.818Z,820
2017-03-13T16:58:22.093Z,792
2017-03-13T16:59:32.772Z,724
2017-03-13T17:00:43.447Z,716
2017-03-13T17:01:53.329Z,756
2017-03-13T17:03:03.208Z,716
2017-03-13T17:04:13.488Z,532
2017-03-13T17:05:23.767Z,476
2017-03-13T17:06:34.450Z,404
2017-03-13T17:07:45.129Z,384
2017-03-13T17:08:55.816Z,360
2017-03-13T17:10:05.696Z,336
2017-03-13T17:11:15.977Z,316
2017-03-13T17:12:26.655Z,288
2017-03-13T17:13:37.344Z,268
2017-03-13T17:14:48.024Z,232
2017-03-13T17:15:58.697Z,224
2017-03-13T17:17:09.368Z,212
2017-03-13T17:18:20.053Z,212
2017-03-13T17:19:30.730Z,196
2017-03-13T17:20:40.999Z,168
2017-03-13T17:21:51.267Z,144
2017-03-13T17:23:01.941Z,136
2017-03-13T17:24:12.619Z,124
2017-03-13T17:25:23.286Z,112
2017-03-13T17:26:33.950Z,100
2017-03-13T17:27:44.623Z,88
2017-03-13T17:28:55.292Z,76
2017-03-13T17:30:05.956Z,64
2017-03-13T17:31:16.629Z,56
2017-03-13T17:32:27.301Z,48
2017-03-13T17:33:37.973Z,44
2017-03-13T17:34:48.660Z,40
2017-03-13T17:35:59.329Z,32
2017-03-13T17:37:10.010Z,28
2017-03-13T17:38:20.285Z,24
2017-03-13T17:39:30.959Z,20
2017-03-13T17:40:41.630Z,16
2017-03-13T17:41:52.301Z,16
2017-03-13T17:43:02.971Z,12